Time;durP1;ratioP1;P1;durP2;ratioP2;P2;SDS_P1;SDS_P2;PMS_P1;PMS_P2;Temp;Humidity;BMP_temperature;BMP_pressure;BME280_temperature;BME280_humidity;BME280_pressure;Samples;Min_cycle;Max_cycle;Signal;HPM_P1;HPM_P2
2022/11/20 00:02:14;;;;;;;9.10;6.20;;;;;;;3.31;73.26;99898.96;24580;1334;3025084;-66
2022/11/20 00:04:44;;;;;;;9.70;6.00;;;;;;;3.38;73.08;99909.55;24530;1336;3050156;-68
2022/11/20 00:07:13;;;;;;;8.90;5.70;;;;;;;3.44;72.77;99917.36;24566;1337;3027191;-66
2022/11/20 00:09:45;;;;;;;9.50;5.60;;;;;;;3.45;72.71;99914.23;24607;1334;3027746;-67
2022/11/20 00:12:14;;;;;;;11.30;5.60;;;;;;;3.41;73.11;99908.77;24652;1323;3028196;-70
2022/11/20 00:14:44;;;;;;;7.40;5.00;;;;;;;3.44;72.95;99907.85;24625;1334;3051634;-69
2022/11/20 00:17:13;;;;;;;5.80;4.30;;;;;;;3.46;72.48;99898.59;24548;1330;3029468;-68
2022/11/20 00:19:42;;;;;;;9.00;4.90;;;;;;;3.54;72.23;99902.73;24629;1330;3052814;-70
2022/11/20 00:22:12;;;;;;;9.40;5.80;;;;;;;3.57;72.07;99909.24;24674;1333;3027104;-69
2022/11/20 00:24:41;;;;;;;8.20;4.70;;;;;;;3.44;72.30;99920.98;24562;1338;3028121;-66
2022/11/20 00:27:10;;;;;;;6.50;3.70;;;;;;;3.93;70.97;99934.34;24589;1337;3050638;-68
2022/11/20 00:29:40;;;;;;;9.20;4.70;;;;;;;4.55;69.38;99941.33;24547;1337;3026338;-68
2022/11/20 00:32:09;;;;;;;7.10;4.50;;;;;;;4.71;67.55;99940.55;24538;1334;3029927;-71
2022/11/20 00:34:38;;;;;;;6.80;4.70;;;;;;;4.58;67.92;99951.84;24601;1329;3051470;-69
2022/11/20 00:37:07;;;;;;;7.30;5.40;;;;;;;4.45;68.50;99944.73;24599;1327;3027539;-69
2022/11/20 00:39:36;;;;;;;8.40;4.90;;;;;;;4.31;68.81;99936.27;24488;1328;3056015;-69
2022/11/20 00:42:05;;;;;;;9.70;5.50;;;;;;;4.05;69.17;99932.80;24583;1321;3027347;-71
2022/11/20 00:44:35;;;;;;;8.10;5.00;;;;;;;4.03;69.79;99928.02;24530;1331;3051111;-68
2022/11/20 00:47:04;;;;;;;8.70;5.10;;;;;;;3.73;70.07;99908.85;24601;1324;3028875;-72
2022/11/20 00:49:33;;;;;;;7.70;4.90;;;;;;;3.50;70.79;99911.00;24565;1321;3069166;-72
2022/11/20 00:52:03;;;;;;;8.30;5.30;;;;;;;3.37;71.44;99905.39;24569;1331;3030457;-69
2022/11/20 00:54:32;;;;;;;8.00;5.30;;;;;;;3.37;71.55;99895.38;24549;1327;3028663;-69
2022/11/20 00:57:03;;;;;;;6.90;4.70;;;;;;;3.40;71.09;99898.56;24560;1334;3028633;-69
2022/11/20 00:59:32;;;;;;;8.10;4.60;;;;;;;3.39;71.00;99895.85;24606;1327;3028490;-66
2022/11/20 01:02:01;;;;;;;8.00;5.40;;;;;;;3.15;71.20;99875.10;24542;1324;3056939;-73
2022/11/20 01:04:30;;;;;;;7.20;4.90;;;;;;;2.91;71.87;99870.29;24581;1323;3024932;-70
2022/11/20 01:06:59;;;;;;;6.70;4.60;;;;;;;2.99;72.09;99867.35;24567;1339;3051169;-71
2022/11/20 01:09:28;;;;;;;8.10;4.90;;;;;;;2.95;71.80;99858.09;24560;1343;3025992;-73
2022/11/20 01:11:58;;;;;;;6.40;4.80;;;;;;;3.05;71.62;99866.34;24537;1334;3070093;-71
2022/11/20 01:14:28;;;;;;;8.20;4.80;;;;;;;3.14;71.55;99870.81;24610;1327;3027490;-72
2022/11/20 01:16:59;;;;;;;6.30;4.20;;;;;;;3.13;71.15;99865.29;24554;1327;3027384;-69
2022/11/20 01:19:28;;;;;;;7.30;4.50;;;;;;;3.14;71.65;99877.20;24579;1326;3026935;-68
2022/11/20 01:21:57;;;;;;;7.40;5.10;;;;;;;3.20;71.47;99879.16;24542;1326;3049756;-74
2022/11/20 01:24:26;;;;;;;8.10;5.00;;;;;;;3.13;71.40;99880.00;24609;1331;3025992;-69
2022/11/20 01:26:56;;;;;;;8.30;5.20;;;;;;;3.14;71.81;99875.66;24548;1324;3068173;-73
2022/11/20 01:29:25;;;;;;;7.10;5.10;;;;;;;3.17;71.39;99876.62;24582;1337;3028138;-72
2022/11/20 01:31:55;;;;;;;8.90;5.60;;;;;;;3.13;70.76;99876.89;24613;1334;3028910;-70
2022/11/20 01:34:24;;;;;;;9.00;5.10;;;;;;;3.10;70.92;99854.81;24546;1328;3027447;-68
2022/11/20 01:36:54;;;;;;;8.20;5.60;;;;;;;3.09;71.26;99856.73;24616;1331;3050759;-71
2022/11/20 01:39:25;;;;;;;8.10;5.10;;;;;;;3.06;71.62;99860.43;24539;1322;3026942;-69
2022/11/20 01:44:48;;;;;;;6.90;4.90;;;;;;;3.23;71.35;99877.86;24549;1337;3054444;-70
2022/11/20 01:47:40;;;;;;;7.60;5.00;;;;;;;3.26;71.28;99854.59;24526;1330;3028641;-67
2022/11/20 01:50:35;;;;;;;6.00;4.50;;;;;;;3.28;71.00;99831.69;24563;1329;3052164;-68
2022/11/20 01:53:05;;;;;;;6.80;4.60;;;;;;;3.43;70.74;99833.73;24587;1331;3050152;-69
2022/11/20 01:55:36;;;;;;;7.70;4.70;;;;;;;3.45;70.56;99844.94;24570;1321;3026290;-67
2022/11/20 01:58:05;;;;;;;7.40;4.80;;;;;;;3.41;70.67;99837.08;24589;1331;3027558;-69
2022/11/20 02:00:35;;;;;;;7.50;5.40;;;;;;;3.46;70.80;99834.20;24562;1334;3027569;-71
2022/11/20 02:03:07;;;;;;;8.30;5.10;;;;;;;3.42;70.67;99815.95;24603;1330;3028134;-70
2022/11/20 02:05:53;;;;;;;7.10;5.00;;;;;;;3.40;70.68;99821.69;24592;1321;3051610;-65
2022/11/20 02:08:23;;;;;;;7.70;5.20;;;;;;;3.42;70.52;99839.83;24593;1331;3056524;-71
2022/11/20 02:10:53;;;;;;;7.40;5.00;;;;;;;3.38;70.44;99857.05;24578;1323;3028154;-69
2022/11/20 02:16:17;;;;;;;8.50;5.20;;;;;;;3.47;69.64;99844.72;24544;1326;3056620;-72
2022/11/20 02:18:46;;;;;;;8.80;5.50;;;;;;;3.42;69.79;99847.95;24565;1310;3051657;-66
2022/11/20 02:21:21;;;;;;;9.40;5.10;;;;;;;3.41;69.71;99854.91;24580;1331;3027529;-69
2022/11/20 02:23:59;;;;;;;6.10;4.40;;;;;;;3.47;69.21;99852.34;24547;1332;3053409;-67
2022/11/20 02:26:30;;;;;;;8.90;5.00;;;;;;;3.46;68.78;99849.44;24592;1334;3054812;-65
2022/11/20 02:28:59;;;;;;;8.30;5.20;;;;;;;3.50;68.94;99855.89;24580;1331;3029365;-68
2022/11/20 02:31:28;;;;;;;10.50;5.20;;;;;;;3.54;68.72;99868.62;24535;1331;3027809;-72
2022/11/20 02:33:57;;;;;;;7.20;4.90;;;;;;;3.50;68.46;99876.52;24615;1327;3051687;-71
2022/11/20 02:36:27;;;;;;;8.10;5.60;;;;;;;3.46;68.50;99875.39;24604;1331;3028198;-68
2022/11/20 02:38:56;;;;;;;8.10;5.40;;;;;;;3.32;68.92;99877.47;24551;1319;3026840;-70
2022/11/20 02:41:35;;;;;;;8.90;6.00;;;;;;;3.33;69.14;99868.09;24526;1334;3028268;-67
2022/11/20 02:44:05;;;;;;;9.40;5.90;;;;;;;3.31;69.16;99859.86;24615;1323;3049869;-71
2022/11/20 02:46:35;;;;;;;8.50;5.90;;;;;;;3.39;69.09;99860.84;24586;1320;3025762;-70
2022/11/20 02:49:05;;;;;;;8.20;5.50;;;;;;;3.42;69.01;99853.16;24574;1331;3029292;-70
2022/11/20 02:51:34;;;;;;;7.80;5.50;;;;;;;3.46;68.97;99834.36;24568;1327;3028035;-66
2022/11/20 02:54:03;;;;;;;7.70;5.10;;;;;;;3.41;69.17;99825.30;24594;1326;3068503;-66
2022/11/20 02:56:32;;;;;;;9.50;6.00;;;;;;;3.37;69.08;99826.45;24550;1319;3028592;-67
2022/11/20 02:59:01;;;;;;;9.20;5.60;;;;;;;3.35;69.53;99832.54;24573;1331;3050226;-70
2022/11/20 03:01:30;;;;;;;8.80;5.40;;;;;;;3.46;69.45;99834.53;24576;1330;3026201;-67
2022/11/20 03:03:59;;;;;;;8.60;5.60;;;;;;;3.48;69.06;99845.22;24534;1329;3029585;-66
2022/11/20 03:06:29;;;;;;;9.00;6.30;;;;;;;3.41;69.54;99844.53;24592;1321;3028865;-67
2022/11/20 03:08:59;;;;;;;11.30;6.20;;;;;;;3.44;69.41;99848.42;24525;1338;3068413;-64
2022/11/20 03:11:28;;;;;;;8.80;5.70;;;;;;;3.50;69.27;99843.94;24597;1313;3026235;-66
2022/11/20 03:14:02;;;;;;;8.50;5.70;;;;;;;3.50;68.67;99835.12;24628;1334;3049109;-67
2022/11/20 03:16:32;;;;;;;8.80;5.60;;;;;;;3.44;68.71;99830.77;24531;1323;3027262;-72
2022/11/20 03:19:02;;;;;;;8.10;5.80;;;;;;;3.37;69.51;99835.61;24543;1322;3028206;-65
2022/11/20 03:21:34;;;;;;;9.10;6.30;;;;;;;3.44;69.27;99841.33;24550;1323;3027358;-67
2022/11/20 03:24:04;;;;;;;9.80;5.80;;;;;;;3.32;69.16;99837.49;24563;1331;3026156;-63
2022/11/20 03:26:38;;;;;;;8.20;5.40;;;;;;;3.38;69.06;99828.85;24518;1333;3053402;-66
2022/11/20 03:29:07;;;;;;;7.50;5.60;;;;;;;3.39;68.85;99825.18;24544;1331;3025783;-64
2022/11/20 03:31:41;;;;;;;8.50;6.00;;;;;;;3.27;69.11;99820.98;24495;1321;3028143;-66
2022/11/20 03:34:10;;;;;;;;;;;;;;;3.28;69.37;99830.82;24502;1329;3056148;-70
2022/11/20 03:36:41;;;;;;;7.50;4.60;;;;;;;3.27;69.32;99848.67;24573;1320;3027075;-68
2022/11/20 03:39:10;;;;;;;11.20;5.20;;;;;;;3.27;69.22;99876.91;24512;1321;3027925;-70
2022/11/20 03:41:41;;;;;;;8.70;5.10;;;;;;;3.22;69.22;99883.77;24588;1331;3027132;-73
2022/11/20 03:44:10;;;;;;;8.20;5.40;;;;;;;3.22;69.18;99885.15;24521;1330;3028256;-68
2022/11/20 03:46:40;;;;;;;9.60;5.40;;;;;;;3.10;69.59;99894.95;24552;1328;3027001;-65
2022/11/20 03:49:08;;;;;;;11.80;6.00;;;;;;;3.04;69.63;99897.53;24613;1321;3026344;-65
2022/11/20 03:51:37;;;;;;;10.10;6.00;;;;;;;3.00;70.25;99905.73;24525;1322;3069270;-67
2022/11/20 03:54:07;;;;;;;9.00;5.20;;;;;;;3.04;69.64;99891.11;24505;1324;3025801;-63
2022/11/20 03:56:37;;;;;;;7.80;5.70;;;;;;;3.11;69.64;99898.39;24543;1337;3048925;-65
2022/11/20 03:59:06;;;;;;;11.70;6.20;;;;;;;3.08;69.66;99903.13;24581;1313;3026710;-66
2022/11/20 04:01:40;;;;;;;9.40;5.70;;;;;;;3.01;69.65;99900.71;24611;1337;3028621;-64
2022/11/20 04:04:09;;;;;;;9.70;5.50;;;;;;;3.04;69.66;99903.22;24584;1326;3028868;-69
2022/11/20 04:06:41;;;;;;;9.50;5.60;;;;;;;3.05;69.76;99896.80;24579;1326;3027828;-68
2022/11/20 04:09:10;;;;;;;9.60;5.60;;;;;;;3.10;69.63;99891.67;24608;1326;3026288;-66
2022/11/20 04:11:40;;;;;;;8.50;5.50;;;;;;;3.02;68.96;99886.66;24548;1329;3030052;-67
2022/11/20 04:14:14;;;;;;;7.90;4.70;;;;;;;2.90;68.61;99884.16;24539;1321;3026318;-68
2022/11/20 04:16:46;;;;;;;8.90;5.70;;;;;;;2.92;68.75;99879.44;24567;1334;3049430;-68
2022/11/20 04:19:16;;;;;;;8.30;5.70;;;;;;;2.97;68.71;99871.70;24567;1331;3026008;-67
2022/11/20 04:21:46;;;;;;;9.40;5.20;;;;;;;3.04;68.79;99860.99;24602;1323;3051328;-67
2022/11/20 04:24:16;;;;;;;7.00;5.40;;;;;;;2.99;68.54;99855.74;24505;1328;3026717;-66
2022/11/20 04:26:45;;;;;;;7.90;4.20;;;;;;;2.95;68.94;99859.11;24559;1313;3027978;-67
2022/11/20 04:29:14;;;;;;;7.90;4.60;;;;;;;2.88;69.16;99863.08;24558;1331;3052031;-67
2022/11/20 04:31:45;;;;;;;8.50;5.40;;;;;;;2.93;69.66;99872.85;24530;1338;3027896;-65
2022/11/20 04:34:14;;;;;;;6.80;5.00;;;;;;;2.95;69.92;99872.80;24583;1330;3026628;-68
2022/11/20 04:36:45;;;;;;;8.50;5.30;;;;;;;3.03;70.00;99872.61;24577;1330;3052177;-68
2022/11/20 04:39:15;;;;;;;7.50;5.50;;;;;;;3.11;69.80;99855.13;24549;1323;3027664;-65
2022/11/20 04:41:45;;;;;;;9.50;5.10;;;;;;;3.18;69.82;99848.03;24624;1319;3050842;-68
2022/11/20 04:44:14;;;;;;;7.50;5.70;;;;;;;3.08;69.97;99840.14;24560;1326;3028417;-69
2022/11/20 04:46:44;;;;;;;8.60;5.20;;;;;;;3.12;69.93;99842.82;24552;1324;3027530;-70
2022/11/20 04:49:13;;;;;;;11.80;6.70;;;;;;;3.07;69.91;99855.56;24548;1336;3026935;-69
2022/11/20 04:51:43;;;;;;;9.10;5.50;;;;;;;3.04;70.46;99871.55;24524;1329;3053017;-68
2022/11/20 04:54:13;;;;;;;9.90;6.00;;;;;;;3.10;70.75;99879.39;24529;1331;3028499;-70
2022/11/20 04:56:42;;;;;;;9.80;6.10;;;;;;;3.03;71.27;99872.45;24605;1330;3026308;-69
2022/11/20 04:59:11;;;;;;;10.40;6.70;;;;;;;3.08;71.02;99869.56;24562;1323;3051836;-62
2022/11/20 05:01:40;;;;;;;10.20;6.60;;;;;;;3.15;70.42;99868.70;24550;1323;3026513;-69
2022/11/20 05:04:19;;;;;;;13.40;6.70;;;;;;;3.03;70.84;99861.20;24526;1334;3051485;-66
2022/11/20 05:06:51;;;;;;;13.90;7.20;;;;;;;3.10;71.13;99857.23;24570;1326;3026575;-66
2022/11/20 05:09:20;;;;;;;13.80;8.20;;;;;;;3.07;71.14;99865.77;24623;1337;3027124;-68
2022/11/20 05:11:56;;;;;;;12.50;7.50;;;;;;;3.04;71.16;99875.89;24544;1324;3052059;-67
2022/11/20 05:14:25;;;;;;;12.00;6.60;;;;;;;3.08;71.41;99872.49;24630;1323;3026749;-69
2022/11/20 05:16:58;;;;;;;10.40;6.30;;;;;;;3.09;71.07;99870.05;24602;1330;3053697;-70
2022/11/20 05:19:27;;;;;;;9.80;6.60;;;;;;;3.10;71.33;99874.55;24565;1323;3024776;-69
2022/11/20 05:21:57;;;;;;;10.50;6.50;;;;;;;3.13;71.30;99876.02;24541;1331;3052639;-68
2022/11/20 05:24:26;;;;;;;8.90;6.30;;;;;;;3.18;71.19;99877.63;24518;1319;3026858;-66
2022/11/20 05:26:55;;;;;;;8.20;5.90;;;;;;;3.14;71.33;99878.59;24600;1324;3056574;-68
2022/11/20 05:29:24;;;;;;;8.30;6.40;;;;;;;3.15;71.46;99888.63;23893;1315;4339038;-65
2022/11/20 05:31:53;;;;;;;10.00;6.80;;;;;;;3.16;71.67;99893.95;24597;1321;3027320;-69
2022/11/20 05:34:22;;;;;;;11.10;6.60;;;;;;;3.07;71.84;99887.92;24583;1337;3048625;-67
2022/11/20 05:36:51;;;;;;;9.80;6.10;;;;;;;3.04;72.46;99883.50;24578;1321;3026938;-70
2022/11/20 05:39:20;;;;;;;12.60;6.30;;;;;;;2.96;72.49;99876.42;24601;1331;3051223;-73
2022/11/20 05:42:29;;;;;;;9.70;6.00;;;;;;;2.95;72.77;99869.15;24571;1330;3027470;-71
2022/11/20 05:44:39;;;;;;;10.00;6.70;;;;;;;3.08;72.48;99866.80;24574;1330;3052750;-71
2022/11/20 05:47:08;;;;;;;10.20;6.50;;;;;;;3.10;71.90;99869.85;24562;1338;3028683;-70
2022/11/20 05:49:37;;;;;;;10.00;7.20;;;;;;;3.04;71.64;99854.43;24669;1330;3027672;-67
2022/11/20 05:52:06;;;;;;;9.80;6.80;;;;;;;3.07;71.42;99846.90;24482;1330;3051307;-71
2022/11/20 05:54:36;;;;;;;8.90;6.60;;;;;;;3.05;71.28;99832.59;24626;1337;3027865;-65
2022/11/20 05:57:05;;;;;;;10.80;6.60;;;;;;;3.01;71.75;99821.27;24553;1330;3028947;-70
2022/11/20 05:59:34;;;;;;;9.00;6.50;;;;;;;3.12;71.47;99823.09;24645;1329;3050971;-70
2022/11/20 06:02:03;;;;;;;9.10;6.00;;;;;;;3.11;70.94;99834.69;24551;1331;3026014;-69
2022/11/20 06:04:33;;;;;;;9.70;6.20;;;;;;;3.10;71.14;99819.48;24584;1323;3053589;-67
2022/11/20 06:07:02;;;;;;;9.10;6.30;;;;;;;3.07;70.82;99814.04;24616;1331;3026922;-69
2022/11/20 06:09:31;;;;;;;10.70;6.10;;;;;;;2.93;70.99;99814.00;24613;1330;3052274;-70
2022/11/20 06:12:00;;;;;;;10.90;6.80;;;;;;;2.68;71.86;99828.77;24607;1337;3027378;-65
2022/11/20 06:14:29;;;;;;;9.70;6.10;;;;;;;2.74;72.28;99837.83;24564;1331;3057387;-69
2022/11/20 06:16:59;;;;;;;8.90;6.10;;;;;;;2.72;72.06;99835.44;24586;1330;3027679;-69
2022/11/20 06:19:29;;;;;;;9.40;6.10;;;;;;;2.63;72.26;99823.00;24553;1323;3028467;-67
2022/11/20 06:21:58;;;;;;;11.80;6.40;;;;;;;2.61;72.39;99821.49;24590;1326;3026532;-73
2022/11/20 06:24:27;;;;;;;9.40;6.00;;;;;;;2.60;72.22;99828.95;24632;1324;3051463;-72
2022/11/20 06:26:56;;;;;;;9.40;6.80;;;;;;;2.65;71.95;99827.28;24595;1329;3030506;-68
2022/11/20 06:29:25;;;;;;;8.90;5.40;;;;;;;2.61;72.26;99834.83;24616;1331;3026715;-67
2022/11/20 06:31:54;;;;;;;9.90;6.30;;;;;;;2.51;72.54;99854.90;24616;1324;3052149;-68
2022/11/20 06:34:24;;;;;;;9.20;6.30;;;;;;;2.48;72.89;99865.34;24645;1321;3029805;-69
2022/11/20 06:36:53;;;;;;;10.60;6.20;;;;;;;2.57;72.49;99849.59;24594;1316;3028049;-67
2022/11/20 06:39:22;;;;;;;11.40;7.10;;;;;;;2.48;72.30;99832.48;24524;1331;3051876;-67
2022/11/20 06:41:51;;;;;;;10.90;6.80;;;;;;;2.43;72.49;99831.39;24629;1323;3026522;-68
2022/11/20 06:44:21;;;;;;;12.20;7.70;;;;;;;2.40;72.52;99828.36;24525;1330;3028302;-65
2022/11/20 06:46:50;;;;;;;12.70;7.90;;;;;;;2.41;73.11;99825.55;24455;1330;3027208;-72
2022/11/20 06:49:23;;;;;;;11.10;7.40;;;;;;;2.37;73.12;99814.23;24613;1324;3026634;-65
2022/11/20 06:51:52;;;;;;;12.60;7.50;;;;;;;2.38;73.56;99809.70;24597;1331;3026585;-65
2022/11/20 06:54:21;;;;;;;12.90;6.90;;;;;;;2.39;73.55;99810.89;24557;1323;3053211;-65
2022/11/20 06:56:52;;;;;;;11.80;7.20;;;;;;;2.41;73.67;99800.13;24563;1330;3028426;-64
2022/11/20 06:59:21;;;;;;;9.90;6.80;;;;;;;2.36;73.57;99802.16;24489;1337;3027624;-69
2022/11/20 07:02:16;;;;;;;11.10;7.10;;;;;;;2.33;73.84;99809.98;24543;1323;3052085;-65
2022/11/20 07:04:45;;;;;;;13.70;7.60;;;;;;;2.46;73.89;99832.70;24554;1326;3027163;-65
2022/11/20 07:07:14;;;;;;;13.00;7.70;;;;;;;2.36;73.86;99836.38;24519;1331;3028379;-67
2022/11/20 07:09:43;;;;;;;12.00;7.40;;;;;;;2.29;74.48;99836.70;24515;1321;3049321;-65
2022/11/20 07:12:12;;;;;;;14.00;7.70;;;;;;;2.27;74.59;99840.38;24571;1324;3027512;-65
2022/11/20 07:14:41;;;;;;;12.10;7.80;;;;;;;2.14;74.96;99836.84;24658;1330;3069955;-65
2022/11/20 07:17:12;;;;;;;13.90;8.20;;;;;;;2.13;75.47;99842.55;24635;1337;3027286;-67
2022/11/20 07:19:42;;;;;;;13.20;6.50;;;;;;;2.28;75.64;99852.96;24614;1323;3028264;-70
2022/11/20 07:22:11;;;;;;;13.90;5.10;;;;;;;2.90;73.89;99859.40;24622;1321;3026978;-71
2022/11/20 07:24:42;;;;;;;10.30;6.70;;;;;;;3.53;71.49;99845.95;24579;1330;3026090;-71
2022/11/20 07:27:11;;;;;;;11.80;6.80;;;;;;;3.71;70.92;99848.59;24639;1330;3026265;-69
2022/11/20 07:29:40;;;;;;;9.70;6.40;;;;;;;3.59;70.92;99865.72;24579;1315;3029538;-70
2022/11/20 07:32:09;;;;;;;11.80;7.10;;;;;;;3.51;70.90;99877.03;24606;1322;3053840;-66
2022/11/20 07:34:38;;;;;;;12.10;7.10;;;;;;;3.30;70.87;99867.64;24575;1324;3030345;-70
2022/11/20 07:37:10;;;;;;;11.00;7.10;;;;;;;3.16;71.46;99850.85;24631;1330;3025870;-69
2022/11/20 07:39:40;;;;;;;13.10;7.50;;;;;;;3.13;71.82;99846.94;24571;1323;3026902;-68
2022/11/20 07:42:37;;;;;;;12.20;6.90;;;;;;;3.04;72.01;99843.36;24562;1306;3029305;-69
2022/11/20 07:45:06;;;;;;;12.30;7.20;;;;;;;2.94;72.48;99856.89;24615;1329;3052885;-73
2022/11/20 07:48:00;;;;;;;13.50;7.70;;;;;;;2.92;73.01;99869.06;24575;1323;3055622;-68
2022/11/20 07:50:33;;;;;;;12.30;7.80;;;;;;;2.75;73.43;99873.93;24586;1337;3028279;-68
2022/11/20 07:53:04;;;;;;;12.70;7.60;;;;;;;2.82;73.51;99855.79;24492;1313;3029933;-69
2022/11/20 07:55:33;;;;;;;13.70;7.80;;;;;;;2.74;73.80;99850.61;24598;1330;3057768;-64
2022/11/20 07:58:02;;;;;;;13.10;7.40;;;;;;;2.71;74.08;99860.20;24508;1316;3027399;-68
2022/11/20 08:00:31;;;;;;;15.60;8.00;;;;;;;2.60;74.55;99847.63;24588;1329;3049395;-71
2022/11/20 08:03:05;;;;;;;10.90;6.90;;;;;;;2.61;74.76;99851.77;24595;1330;3027660;-68
2022/11/20 08:05:34;;;;;;;11.30;7.30;;;;;;;2.58;75.15;99891.42;24560;1323;3069889;-69
2022/11/20 08:08:28;;;;;;;14.20;7.80;;;;;;;2.57;75.59;99879.34;24618;1327;3049017;-67
2022/11/20 08:16:35;;;;;;;16.40;8.60;;;;;;;2.56;75.67;99817.79;24608;1329;3054825;-66
2022/11/20 08:19:04;;;;;;;14.50;9.40;;;;;;;2.55;76.02;99834.41;24549;1330;3027076;-70
2022/11/20 08:21:59;;;;;;;13.50;7.80;;;;;;;2.54;76.30;99824.59;24573;1322;3052876;-66
2022/11/20 08:24:54;;;;;;;8.80;5.30;;;;;;;3.25;74.49;99787.59;24575;1330;3052333;-69
2022/11/20 08:27:24;;;;;;;12.20;6.80;;;;;;;3.80;72.53;99770.03;24591;1330;3026189;-70
2022/11/20 08:29:54;;;;;;;11.70;7.60;;;;;;;3.94;71.82;99778.15;24565;1324;3028819;-68
2022/11/20 08:32:22;;;;;;;14.40;8.60;;;;;;;3.85;71.86;99770.24;24642;1331;3052073;-68
2022/11/20 08:34:52;;;;;;;12.70;8.30;;;;;;;3.53;72.39;99756.06;24545;1330;3028538;-70
2022/11/20 08:37:21;;;;;;;15.10;8.50;;;;;;;3.41;72.98;99747.89;24628;1337;3051506;-69
2022/11/20 08:39:50;;;;;;;15.20;8.20;;;;;;;3.43;73.14;99753.55;24606;1316;3025990;-71
2022/11/20 08:42:19;;;;;;;14.00;7.90;;;;;;;3.18;73.67;99744.35;24648;1330;3056458;-70
2022/11/20 08:44:50;;;;;;;14.00;8.40;;;;;;;3.13;74.30;99735.30;24598;1327;3027623;-70
2022/11/20 08:47:19;;;;;;;15.10;8.60;;;;;;;3.00;74.69;99726.11;24628;1316;3027434;-69
2022/11/20 08:49:48;;;;;;;15.10;8.90;;;;;;;2.90;75.18;99721.34;24593;1330;3056620;-66
2022/11/20 08:52:17;;;;;;;13.50;7.90;;;;;;;2.83;75.85;99726.54;24600;1323;3026305;-70
2022/11/20 08:54:46;;;;;;;15.00;9.20;;;;;;;2.75;76.07;99721.88;24609;1328;3049356;-67
2022/11/20 08:57:15;;;;;;;16.00;9.70;;;;;;;2.78;76.08;99704.51;24558;1330;3026348;-67
2022/11/20 08:59:45;;;;;;;18.10;9.70;;;;;;;2.67;76.57;99691.98;24616;1329;3071548;-67
2022/11/20 09:02:39;;;;;;;13.60;8.20;;;;;;;2.64;77.08;99700.88;24610;1329;3049224;-70
2022/11/20 09:05:08;;;;;;;14.50;8.80;;;;;;;2.71;76.88;99699.66;24631;1327;3025957;-68
2022/11/20 09:07:40;;;;;;;13.90;8.80;;;;;;;2.71;76.90;99693.42;24592;1330;3069637;-73
2022/11/20 09:10:09;;;;;;;11.80;6.40;;;;;;;2.65;77.45;99707.94;24583;1337;3028611;-68
2022/11/20 09:12:40;;;;;;;8.90;5.90;;;;;;;3.25;75.66;99697.22;24579;1331;3024885;-73
2022/11/20 09:15:13;;;;;;;13.50;7.10;;;;;;;3.92;73.38;99666.08;24599;1331;3029306;-72
2022/11/20 09:17:42;;;;;;;10.00;6.90;;;;;;;3.92;72.36;99652.02;24575;1324;3028504;-72
2022/11/20 09:20:11;;;;;;;12.40;8.20;;;;;;;3.74;73.14;99638.54;24610;1323;3056974;-66
2022/11/20 09:22:43;;;;;;;14.30;8.10;;;;;;;3.65;73.84;99648.67;24570;1331;3028471;-69
2022/11/20 09:25:12;;;;;;;17.10;8.30;;;;;;;3.47;74.60;99656.64;24600;1327;3026478;-68
2022/11/20 09:27:45;;;;;;;12.20;7.80;;;;;;;3.37;74.85;99652.42;24613;1330;3057633;-70
2022/11/20 09:30:14;;;;;;;13.00;8.20;;;;;;;3.27;75.43;99642.82;24595;1324;3027167;-71
2022/11/20 09:33:08;;;;;;;15.00;8.00;;;;;;;3.11;75.98;99651.58;24572;1324;3053881;-70
2022/11/20 09:35:37;;;;;;;14.20;7.40;;;;;;;3.13;76.33;99662.95;24593;1323;3026867;-69
2022/11/20 09:38:07;;;;;;;12.10;7.50;;;;;;;3.13;76.47;99660.86;24616;1331;3026920;-70
2022/11/20 09:40:38;;;;;;;11.20;7.30;;;;;;;3.16;76.65;99656.30;24554;1329;3052301;-69
2022/11/20 09:43:14;;;;;;;;;;;;;;;3.10;77.20;99653.67;24589;1330;3050823;-64
2022/11/20 09:45:48;;;;;;;10.90;7.00;;;;;;;2.97;77.60;99638.60;24547;1330;3052585;-70
2022/11/20 09:48:17;;;;;;;11.80;7.90;;;;;;;3.04;77.21;99625.44;24580;1330;3049066;-68
2022/11/20 09:50:57;;;;;;;11.60;7.20;;;;;;;3.00;77.34;99632.14;24601;1330;3026072;-67
2022/11/20 09:53:51;;;;;;;11.20;7.70;;;;;;;2.99;77.32;99626.98;24588;1331;3053927;-72
2022/11/20 09:56:20;;;;;;;11.70;5.60;;;;;;;3.08;77.38;99623.44;24542;1331;3050915;-65
2022/11/20 09:58:50;;;;;;;8.80;5.40;;;;;;;3.61;75.98;99610.86;24521;1331;3027870;-62
2022/11/20 10:01:21;;;;;;;7.90;5.00;;;;;;;4.35;73.61;99593.27;24586;1321;3052686;-66
2022/11/20 10:04:04;;;;;;;11.00;6.20;;;;;;;4.57;72.07;99580.43;24606;1330;3027991;-68
2022/11/20 10:06:39;;;;;;;10.80;7.00;;;;;;;4.22;72.72;99590.95;24545;1329;3069832;-69
2022/11/20 10:09:11;;;;;;;13.00;6.20;;;;;;;4.13;73.44;99600.59;24536;1331;3049739;-66
2022/11/20 10:11:44;;;;;;;12.50;7.00;;;;;;;4.15;73.71;99593.63;24570;1334;3025102;-69
2022/11/20 10:14:44;;;;;;;11.30;6.80;;;;;;;3.99;73.89;99584.56;24562;1329;3053921;-64
2022/11/20 10:17:23;;;;;;;12.60;7.10;;;;;;;3.81;74.49;99581.67;24511;1327;3053404;-67
2022/11/20 10:20:19;;;;;;;12.80;6.90;;;;;;;3.88;74.65;99577.30;24564;1324;3050325;-68
2022/11/20 10:23:07;;;;;;;11.90;7.00;;;;;;;3.69;75.16;99572.50;24601;1316;3053663;-66
2022/11/20 10:26:03;;;;;;;10.10;6.10;;;;;;;3.53;76.27;99594.98;24532;1331;3050445;-67
2022/11/20 10:28:41;;;;;;;10.80;6.50;;;;;;;3.54;76.56;99605.00;24638;1327;3068325;-70
2022/11/20 10:31:13;;;;;;;12.00;7.00;;;;;;;3.52;76.50;99595.35;24554;1337;3050552;-65
2022/11/20 10:33:45;;;;;;;9.60;6.30;;;;;;;3.43;76.92;99566.19;24669;1331;3058204;-65
2022/11/20 10:36:21;;;;;;;10.20;6.50;;;;;;;3.52;76.98;99551.55;24575;1323;3028166;-63
2022/11/20 10:38:56;;;;;;;11.80;7.30;;;;;;;3.42;77.28;99534.52;24568;1330;3053738;-69
2022/11/20 10:41:29;;;;;;;10.00;5.70;;;;;;;3.32;78.33;99518.02;24602;1330;3049902;-67
2022/11/20 10:47:40;;;;;;;11.50;5.40;;;;;;;4.84;73.61;99496.90;24575;1326;3050635;-66
2022/11/20 10:50:19;;;;;;;10.40;6.20;;;;;;;4.94;73.23;99496.52;24531;1324;3027319;-66
2022/11/20 10:53:16;;;;;;;10.70;6.90;;;;;;;4.70;73.41;99500.18;24550;1323;3052971;-65
2022/11/20 10:55:58;;;;;;;11.30;7.50;;;;;;;4.44;74.03;99505.92;24525;1331;3050818;-65
2022/11/20 10:58:42;;;;;;;10.90;7.10;;;;;;;4.26;74.62;99500.47;24605;1330;3069842;-64
2022/11/20 11:01:16;;;;;;;13.20;7.20;;;;;;;4.10;75.00;99487.15;24557;1313;3051105;-65
2022/11/20 11:03:46;;;;;;;12.70;7.10;;;;;;;3.95;75.54;99472.56;24594;1321;3056337;-68
2022/11/20 11:06:25;;;;;;;9.90;6.70;;;;;;;3.77;76.19;99470.02;24603;1321;3027780;-72
2022/11/20 11:08:58;;;;;;;13.80;7.20;;;;;;;3.65;76.96;99497.45;24539;1321;3050469;-67
2022/11/20 11:11:31;;;;;;;10.90;6.50;;;;;;;3.36;77.65;99522.59;24617;1330;3027751;-65
2022/11/20 11:14:07;;;;;;;13.20;7.40;;;;;;;3.33;78.25;99534.44;24606;1330;3051421;-65
2022/11/20 11:16:52;;;;;;;11.70;7.80;;;;;;;3.21;78.78;99508.98;24557;1330;3052529;-63
2022/11/20 11:19:22;;;;;;;11.10;6.40;;;;;;;3.26;78.36;99470.78;24561;1331;3050893;-65
2022/11/20 11:21:56;;;;;;;10.50;6.60;;;;;;;3.09;78.79;99470.75;24655;1331;3027010;-66
2022/11/20 11:24:26;;;;;;;9.30;5.10;;;;;;;3.10;79.40;99485.10;24622;1337;3050602;-68
2022/11/20 11:27:04;;;;;;;7.00;4.20;;;;;;;3.80;77.62;99477.23;24576;1321;3025518;-66
2022/11/20 11:29:35;;;;;;;8.50;5.20;;;;;;;4.29;75.34;99444.38;24514;1322;3049285;-65
2022/11/20 11:32:11;;;;;;;9.70;5.60;;;;;;;4.30;74.87;99436.71;24504;1340;3027483;-65
2022/11/20 11:35:06;;;;;;;11.00;5.70;;;;;;;4.18;75.24;99446.67;24527;1314;3054798;-68
2022/11/20 11:37:39;;;;;;;10.70;6.60;;;;;;;4.10;75.54;99446.06;24513;1330;3052628;-65
2022/11/20 11:40:11;;;;;;;9.30;5.70;;;;;;;3.96;76.14;99447.07;24545;1322;3028691;-65
2022/11/20 11:42:52;;;;;;;11.30;6.20;;;;;;;3.88;76.51;99457.39;24555;1338;3053918;-66
2022/11/20 11:45:21;;;;;;;10.20;6.20;;;;;;;3.72;76.80;99452.02;24551;1338;3053379;-64
2022/11/20 11:47:53;;;;;;;10.20;5.40;;;;;;;3.53;77.31;99455.90;24603;1323;3026068;-64
2022/11/20 11:50:26;;;;;;;9.80;5.90;;;;;;;3.50;77.58;99461.38;24648;1324;3027827;-69
2022/11/20 11:53:03;;;;;;;10.70;5.90;;;;;;;3.46;78.06;99461.33;24593;1331;3050975;-68
2022/11/20 11:55:40;;;;;;;11.20;6.20;;;;;;;3.48;78.24;99457.80;24530;1329;3071425;-65
2022/11/20 11:58:10;;;;;;;9.90;5.90;;;;;;;3.29;78.62;99445.05;24545;1323;3049459;-67
2022/11/20 12:00:41;;;;;;;6.80;4.30;;;;;;;3.20;78.82;99444.82;24624;1321;3026140;-69